Time;durP1;ratioP1;P1;durP2;ratioP2;P2;SDS_P1;SDS_P2;PMS_P1;PMS_P2;Temp;Humidity;BMP_temperature;BMP_pressure;BME280_temperature;BME280_humidity;BME280_pressure;Samples;Min_cycle;Max_cycle;Signal;HPM_P1;HPM_P2
2021/03/23 00:00:34;;;;;;;20.08;11.25;;;6.50;74.00;;;;;;4995212;28;20133;-77
2021/03/23 00:03:04;;;;;;;21.50;11.15;;;6.50;74.00;;;;;;4994607;28;20383;-77
2021/03/23 00:05:30;;;;;;;24.70;11.77;;;6.50;74.20;;;;;;4994930;28;20488;-76
2021/03/23 00:07:56;;;;;;;21.65;10.77;;;6.40;73.90;;;;;;4977655;28;20538;-77
2021/03/23 00:10:26;;;;;;;22.33;10.55;;;6.40;73.80;;;;;;4993361;28;20085;-77
2021/03/23 00:12:52;;;;;;;24.08;10.05;;;6.40;74.20;;;;;;4994674;28;20045;-77
2021/03/23 00:15:19;;;;;;;21.67;11.38;;;6.30;74.80;;;;;;4993763;28;20507;-77
2021/03/23 00:17:45;;;;;;;21.15;10.77;;;6.30;74.20;;;;;;5013725;28;20110;-77
2021/03/23 00:20:14;;;;;;;17.05;10.48;;;6.30;74.40;;;;;;5012664;28;20035;-78
2021/03/23 00:22:40;;;;;;;22.50;9.95;;;6.20;74.30;;;;;;5010326;28;20056;-76
2021/03/23 00:25:09;;;;;;;30.00;11.05;;;6.20;74.50;;;;;;5008393;28;20045;-76
2021/03/23 00:27:37;;;;;;;23.17;11.63;;;6.10;74.60;;;;;;4997419;28;20030;-78
2021/03/23 00:30:09;;;;;;;27.80;11.27;;;6.10;74.60;;;;;;4980606;28;20109;-77
2021/03/23 00:32:35;;;;;;;21.45;11.23;;;6.10;74.70;;;;;;4994340;28;20089;-78
2021/03/23 00:35:02;;;;;;;27.48;11.32;;;6.00;74.90;;;;;;4995205;28;20041;-77
2021/03/23 00:37:29;;;;;;;25.02;11.40;;;6.00;74.90;;;;;;4993494;28;20042;-77
2021/03/23 00:39:55;;;;;;;29.73;11.52;;;6.00;75.00;;;;;;4993201;28;20112;-77
2021/03/23 00:42:21;;;;;;;27.75;12.00;;;6.00;75.10;;;;;;4994029;28;20427;-77
2021/03/23 00:44:48;;;;;;;29.08;11.15;;;5.90;75.20;;;;;;4993434;28;20089;-78
2021/03/23 00:47:15;;;;;;;24.65;11.07;;;5.90;75.20;;;;;;4993484;28;20121;-78
2021/03/23 00:49:41;;;;;;;28.75;12.10;;;5.90;75.50;;;;;;4992891;28;20510;-78
2021/03/23 00:52:07;;;;;;;22.42;10.90;;;5.90;75.30;;;;;;4993413;28;20554;-77
2021/03/23 00:54:33;;;;;;;27.50;11.63;;;5.90;75.50;;;;;;4993227;28;20038;-76
2021/03/23 00:56:58;;;;;;;24.42;11.27;;;5.80;75.40;;;;;;4993392;28;20041;-77
2021/03/23 00:59:24;;;;;;;28.77;12.13;;;5.80;75.50;;;;;;4994319;28;20388;-77
2021/03/23 01:01:50;;;;;;;22.50;11.38;;;5.80;75.50;;;;;;4993285;28;20403;-77
2021/03/23 01:04:16;;;;;;;30.80;13.15;;;5.70;75.70;;;;;;4995952;28;20041;-77
2021/03/23 01:06:42;;;;;;;27.42;12.38;;;5.80;75.60;;;;;;4996884;28;20061;-76
2021/03/23 01:09:08;;;;;;;26.83;12.13;;;5.70;75.70;;;;;;4998148;28;20054;-76
2021/03/23 01:11:34;;;;;;;24.80;11.32;;;5.70;75.80;;;;;;4998078;28;20046;-76
2021/03/23 01:13:59;;;;;;;23.85;11.40;;;5.70;75.70;;;;;;4996679;28;20038;-76
2021/03/23 01:16:25;;;;;;;27.98;12.18;;;5.70;75.90;;;;;;4998180;28;20125;-76
2021/03/23 01:18:51;;;;;;;28.35;11.38;;;5.60;75.90;;;;;;4996253;28;20079;-76
2021/03/23 01:21:17;;;;;;;28.27;11.82;;;5.60;75.90;;;;;;4997830;28;20046;-76
2021/03/23 01:23:43;;;;;;;25.45;11.27;;;5.60;76.20;;;;;;4996354;28;20042;-76
2021/03/23 01:26:09;;;;;;;28.80;12.32;;;5.60;76.00;;;;;;4980796;28;20034;-76
2021/03/23 01:28:35;;;;;;;28.35;11.20;;;5.60;75.90;;;;;;4998037;28;20065;-76
2021/03/23 01:31:01;;;;;;;22.90;11.15;;;5.50;76.00;;;;;;4996408;28;20088;-76
2021/03/23 01:33:26;;;;;;;25.25;12.20;;;5.50;76.10;;;;;;4996937;28;20042;-77
2021/03/23 01:35:52;;;;;;;24.60;10.93;;;5.50;76.10;;;;;;4996278;28;20038;-76
2021/03/23 01:38:18;;;;;;;28.95;11.93;;;5.50;76.40;;;;;;4996257;28;20049;-78
2021/03/23 01:40:44;;;;;;;25.95;10.95;;;5.50;76.30;;;;;;4994980;28;20050;-77
2021/03/23 01:43:24;;;;;;;28.63;11.57;;;5.50;76.40;;;;;;4997537;28;20191;-77
2021/03/23 01:45:51;;;;;;;19.52;10.38;;;5.40;76.50;;;;;;4979756;28;20093;-77
2021/03/23 01:48:22;;;;;;;24.55;11.20;;;5.40;76.50;;;;;;4997692;28;20046;-77
2021/03/23 01:51:01;;;;;;;31.25;11.40;;;5.30;76.60;;;;;;4979575;28;20042;-77
2021/03/23 01:53:40;;;;;;;28.33;12.52;;;5.40;76.70;;;;;;4979335;28;20133;-77
2021/03/23 01:56:10;;;;;;;25.75;11.90;;;5.30;76.80;;;;;;4979698;28;20446;-77
2021/03/23 01:58:39;;;;;;;28.55;12.38;;;5.30;77.00;;;;;;4979081;28;20525;-77
2021/03/23 02:01:08;;;;;;;27.90;11.15;;;5.20;77.00;;;;;;4996854;28;20022;-77
2021/03/23 02:03:34;;;;;;;30.42;11.55;;;5.30;77.10;;;;;;4980443;28;20344;-77
2021/03/23 02:06:02;;;;;;;29.85;12.05;;;5.30;77.20;;;;;;4997037;28;20073;-77
2021/03/23 02:08:29;;;;;;;21.27;10.85;;;5.30;77.10;;;;;;4979655;28;20042;-77
2021/03/23 02:10:57;;;;;;;30.45;11.85;;;5.30;76.90;;;;;;4979411;28;20034;-77
2021/03/23 02:13:24;;;;;;;26.55;11.45;;;5.20;77.00;;;;;;4979146;28;20043;-77
2021/03/23 02:15:50;;;;;;;24.85;10.85;;;5.20;77.10;;;;;;4978462;28;20129;-77
2021/03/23 02:18:18;;;;;;;26.98;10.93;;;5.20;77.30;;;;;;4979803;28;20502;-77
2021/03/23 02:21:11;;;;;;;22.55;10.73;;;5.20;77.00;;;;;;4978817;28;20038;-77
2021/03/23 02:23:51;;;;;;;26.88;11.43;;;5.20;77.30;;;;;;4992846;28;20045;-77
2021/03/23 02:26:23;;;;;;;21.02;10.80;;;5.20;77.30;;;;;;4979828;28;20168;-76
2021/03/23 02:29:06;;;;;;;23.83;11.55;;;5.10;77.30;;;;;;4978881;28;20124;-77
2021/03/23 02:31:38;;;;;;;27.58;10.82;;;5.10;77.30;;;;;;4978869;28;20088;-77
2021/03/23 02:34:09;;;;;;;23.67;11.02;;;5.10;77.50;;;;;;4978790;28;20038;-77
2021/03/23 02:36:37;;;;;;;24.45;11.13;;;5.10;77.50;;;;;;4996093;28;20045;-77
2021/03/23 02:39:05;;;;;;;22.50;11.02;;;5.10;77.50;;;;;;4995672;28;20399;-77
2021/03/23 02:41:31;;;;;;;26.05;11.73;;;5.00;77.60;;;;;;4978885;28;20042;-77
2021/03/23 02:43:57;;;;;;;23.90;10.82;;;5.00;77.60;;;;;;4996025;28;20475;-77
2021/03/23 02:46:23;;;;;;;23.25;10.95;;;5.00;77.40;;;;;;4978411;28;20495;-77
2021/03/23 02:48:49;;;;;;;30.55;10.68;;;5.00;77.50;;;;;;4978350;28;20085;-77
2021/03/23 02:51:17;;;;;;;20.27;9.88;;;5.00;77.60;;;;;;4978018;28;20077;-76
2021/03/23 02:53:47;;;;;;;27.17;11.30;;;5.00;77.70;;;;;;4995262;28;20034;-77
2021/03/23 02:56:14;;;;;;;25.23;10.57;;;4.90;77.70;;;;;;4978119;28;20038;-77
2021/03/23 02:58:40;;;;;;;25.45;10.75;;;4.90;77.80;;;;;;4978199;28;20045;-77
2021/03/23 03:01:07;;;;;;;26.92;10.55;;;4.90;77.80;;;;;;4978275;28;20034;-77
2021/03/23 03:03:33;;;;;;;27.73;10.90;;;4.90;77.90;;;;;;4978526;28;20539;-77
2021/03/23 03:05:59;;;;;;;26.75;11.52;;;4.90;77.80;;;;;;4978491;28;20081;-77
2021/03/23 03:08:25;;;;;;;24.75;10.88;;;4.90;77.80;;;;;;4978727;28;20039;-77
2021/03/23 03:10:52;;;;;;;29.02;11.32;;;4.80;77.90;;;;;;4978223;28;20394;-77
2021/03/23 03:13:21;;;;;;;21.88;10.95;;;4.80;78.00;;;;;;4978353;28;20038;-77
2021/03/23 03:15:48;;;;;;;19.67;9.65;;;4.80;78.10;;;;;;4978324;28;20045;-77
2021/03/23 03:18:14;;;;;;;21.58;10.88;;;4.80;78.20;;;;;;4978186;28;20081;-77
2021/03/23 03:20:40;;;;;;;27.30;10.73;;;4.80;78.20;;;;;;4978104;28;20064;-77
2021/03/23 03:23:06;;;;;;;24.65;11.02;;;4.80;78.30;;;;;;4978986;28;20040;-77
2021/03/23 03:25:32;;;;;;;24.33;10.77;;;4.70;78.10;;;;;;4977714;28;20117;-77
2021/03/23 03:27:58;;;;;;;22.75;10.55;;;4.70;78.30;;;;;;4978016;28;20042;-77
2021/03/23 03:30:27;;;;;;;25.20;10.52;;;4.80;78.40;;;;;;4977814;28;20514;-77
2021/03/23 03:32:54;;;;;;;26.13;10.40;;;4.70;78.50;;;;;;4977869;28;20035;-77
2021/03/23 03:35:26;;;;;;;26.20;10.65;;;4.70;78.60;;;;;;4977929;28;20112;-77
2021/03/23 03:37:52;;;;;;;30.27;11.30;;;4.70;78.40;;;;;;4977712;28;20406;-77
2021/03/23 03:40:24;;;;;;;20.48;10.70;;;4.60;78.60;;;;;;4974133;28;20126;-77
2021/03/23 03:42:51;;;;;;;27.75;10.48;;;4.60;78.60;;;;;;4976192;28;20031;-77
2021/03/23 03:45:17;;;;;;;20.98;9.82;;;4.60;78.70;;;;;;4991031;28;20039;-77
2021/03/23 03:47:43;;;;;;;25.00;10.27;;;4.60;78.70;;;;;;4974896;28;20066;-77
2021/03/23 03:50:10;;;;;;;21.50;9.98;;;4.60;78.60;;;;;;4974673;28;20089;-77
2021/03/23 03:52:36;;;;;;;24.08;11.02;;;4.60;78.60;;;;;;4974507;28;20388;-77
2021/03/23 03:55:03;;;;;;;24.05;10.95;;;4.60;78.90;;;;;;4990584;28;20138;-77
2021/03/23 03:57:30;;;;;;;26.58;11.77;;;4.50;78.60;;;;;;4975671;28;20039;-77
2021/03/23 03:59:55;;;;;;;21.52;11.18;;;4.50;78.80;;;;;;4974554;28;20085;-77
2021/03/23 04:02:21;;;;;;;21.55;10.50;;;4.50;78.80;;;;;;4976013;28;20122;-77
2021/03/23 04:04:47;;;;;;;24.90;10.85;;;4.50;79.00;;;;;;4974503;28;20034;-77
2021/03/23 04:07:13;;;;;;;28.77;11.55;;;4.50;79.00;;;;;;4990336;28;20420;-77
2021/03/23 04:09:39;;;;;;;26.52;11.77;;;4.50;78.90;;;;;;4989867;28;20066;-77
2021/03/23 04:12:07;;;;;;;23.98;10.27;;;4.40;79.20;;;;;;4975581;28;20125;-77
2021/03/23 04:14:33;;;;;;;24.38;10.77;;;4.30;79.30;;;;;;4990431;28;20118;-76
2021/03/23 04:16:59;;;;;;;25.00;10.70;;;4.30;79.40;;;;;;4990553;28;20074;-75
2021/03/23 04:19:25;;;;;;;26.63;11.38;;;4.30;79.60;;;;;;4990205;28;20053;-76
2021/03/23 04:21:51;;;;;;;27.23;11.13;;;4.30;79.70;;;;;;4990540;28;20034;-76
2021/03/23 04:24:17;;;;;;;21.80;10.40;;;4.30;79.60;;;;;;4990283;28;20070;-76
2021/03/23 04:26:43;;;;;;;21.67;11.07;;;4.30;79.70;;;;;;4990993;28;20491;-77
2021/03/23 04:29:09;;;;;;;24.55;11.38;;;4.30;79.70;;;;;;4975305;28;20133;-76
2021/03/23 04:31:37;;;;;;;24.90;10.95;;;4.20;79.80;;;;;;4990477;28;20515;-77
2021/03/23 04:34:05;;;;;;;21.27;10.93;;;4.20;79.80;;;;;;4975430;28;20054;-77
2021/03/23 04:36:31;;;;;;;23.40;11.25;;;4.20;79.80;;;;;;4990351;28;20038;-76
2021/03/23 04:38:57;;;;;;;22.88;10.93;;;4.20;79.70;;;;;;4992867;28;20043;-76
2021/03/23 04:41:24;;;;;;;29.88;11.32;;;4.20;79.80;;;;;;4993925;28;20046;-77
2021/03/23 04:43:51;;;;;;;25.33;11.10;;;4.20;79.80;;;;;;4994723;28;20045;-76
2021/03/23 04:46:24;;;;;;;32.15;11.23;;;4.10;79.90;;;;;;4994331;28;20035;-77
2021/03/23 04:48:50;;;;;;;25.95;10.90;;;4.10;80.00;;;;;;4994811;28;20050;-76
2021/03/23 04:51:17;;;;;;;26.73;11.35;;;4.10;80.60;;;;;;4979239;28;20388;-77
2021/03/23 04:53:43;;;;;;;20.75;11.43;;;4.00;80.10;;;;;;4978494;28;20130;-77
2021/03/23 04:56:22;;;;;;;22.25;10.65;;;4.00;80.30;;;;;;4977932;28;20133;-76
2021/03/23 04:58:49;;;;;;;31.42;11.20;;;3.90;80.40;;;;;;4993759;28;20051;-76
2021/03/23 05:01:16;;;;;;;26.45;11.48;;;4.00;80.60;;;;;;4994085;28;20031;-77
2021/03/23 05:03:41;;;;;;;20.75;11.15;;;4.00;80.70;;;;;;4993897;28;20133;-76
2021/03/23 05:06:09;;;;;;;24.00;10.95;;;3.90;80.40;;;;;;4993977;28;20118;-76
2021/03/23 05:08:43;;;;;;;26.10;11.32;;;3.90;80.60;;;;;;4994226;28;20479;-76
2021/03/23 05:11:10;;;;;;;22.60;10.65;;;3.90;80.60;;;;;;4993756;28;20038;-78
2021/03/23 05:13:36;;;;;;;26.67;11.68;;;3.80;80.90;;;;;;4993786;28;20046;-77
2021/03/23 05:16:02;;;;;;;28.92;12.18;;;3.80;80.80;;;;;;4993673;28;20039;-77
2021/03/23 05:18:28;;;;;;;25.33;11.63;;;3.80;81.00;;;;;;4993609;28;20193;-77
2021/03/23 05:20:56;;;;;;;23.00;11.18;;;3.80;80.90;;;;;;4993680;28;20139;-77
2021/03/23 05:23:22;;;;;;;27.92;11.75;;;3.80;81.00;;;;;;4993560;28;20038;-76
2021/03/23 05:25:48;;;;;;;25.30;10.95;;;3.70;81.10;;;;;;4993420;28;20125;-77
2021/03/23 05:28:14;;;;;;;26.35;11.93;;;3.70;81.20;;;;;;4978661;28;20070;-77
2021/03/23 05:30:41;;;;;;;26.85;11.68;;;3.70;81.10;;;;;;4993217;28;20038;-78
2021/03/23 05:33:09;;;;;;;23.80;11.07;;;3.70;81.20;;;;;;4993448;28;20098;-77
2021/03/23 05:35:35;;;;;;;23.13;10.82;;;3.60;81.40;;;;;;4993380;28;20125;-77
2021/03/23 05:38:01;;;;;;;24.30;11.27;;;3.60;81.40;;;;;;4994162;28;20134;-76
2021/03/23 05:40:32;;;;;;;25.15;12.13;;;3.60;81.70;;;;;;4992738;28;20069;-76
2021/03/23 05:43:25;;;;;;;29.35;12.02;;;3.60;81.70;;;;;;4992699;28;20130;-76
2021/03/23 05:46:24;;;;;;;29.35;11.95;;;3.60;81.90;;;;;;4976636;28;20035;-76
2021/03/23 05:49:25;;;;;;;24.10;11.00;;;3.70;81.70;;;;;;4988340;28;20049;-76
2021/03/23 05:52:26;;;;;;;26.90;11.93;;;3.80;81.10;;;;;;4978079;28;20042;-76
2021/03/23 05:55:01;;;;;;;23.83;11.55;;;3.70;81.00;;;;;;4988832;28;20049;-77
2021/03/23 05:57:32;;;;;;;25.83;12.02;;;3.70;81.70;;;;;;4992441;28;20150;-76
2021/03/23 06:00:02;;;;;;;25.40;11.55;;;3.70;81.60;;;;;;4976442;28;20133;-77
2021/03/23 06:02:51;;;;;;;25.10;11.00;;;3.70;81.30;;;;;;4992151;28;20126;-77
2021/03/23 06:05:29;;;;;;;27.05;11.75;;;3.70;81.30;;;;;;4992565;28;20037;-76
2021/03/23 06:08:00;;;;;;;29.65;13.10;;;3.60;81.20;;;;;;4977369;28;20042;-76
2021/03/23 06:10:26;;;;;;;25.85;11.05;;;3.60;81.20;;;;;;4975846;28;20075;-77
2021/03/23 06:13:06;;;;;;;23.33;11.65;;;3.60;81.50;;;;;;4977553;28;20030;-77
2021/03/23 06:15:41;;;;;;;24.13;11.27;;;3.60;81.10;;;;;;4990119;28;20116;-76
2021/03/23 06:18:31;;;;;;;24.48;12.18;;;3.70;81.40;;;;;;4992070;28;20089;-77
2021/03/23 06:21:11;;;;;;;22.50;11.60;;;3.70;81.20;;;;;;4992132;28;20578;-77
2021/03/23 06:24:16;;;;;;;21.92;11.25;;;3.70;81.10;;;;;;4992944;28;20041;-76
2021/03/23 06:26:49;;;;;;;23.65;12.25;;;3.60;81.00;;;;;;4992038;28;20073;-76
2021/03/23 06:29:50;;;;;;;28.27;12.90;;;3.60;81.10;;;;;;4975708;28;20039;-75
2021/03/23 06:32:40;;;;;;;27.67;11.98;;;3.60;81.10;;;;;;4974497;28;20097;-78
2021/03/23 06:35:11;;;;;;;33.90;12.93;;;3.60;81.30;;;;;;4992027;28;20570;-77
2021/03/23 06:37:39;;;;;;;28.58;12.35;;;3.60;81.60;;;;;;4991986;28;20086;-77
2021/03/23 06:40:21;;;;;;;28.92;12.80;;;3.70;81.10;;;;;;4991567;28;20043;-76
2021/03/23 06:42:51;;;;;;;27.35;12.38;;;3.70;80.90;;;;;;4991865;28;20062;-75
2021/03/23 06:45:17;;;;;;;23.95;11.40;;;3.70;81.00;;;;;;4991949;28;20039;-76
2021/03/23 06:47:43;;;;;;;22.33;11.52;;;3.70;81.00;;;;;;4975858;28;20503;-76
2021/03/23 06:50:18;;;;;;;29.95;13.35;;;3.80;81.00;;;;;;4992042;28;20077;-75
2021/03/23 06:52:44;;;;;;;25.85;11.27;;;3.80;80.40;;;;;;4976385;28;20062;-75
2021/03/23 06:55:26;;;;;;;26.95;11.23;;;3.80;80.30;;;;;;4991658;28;20533;-76
2021/03/23 06:57:52;;;;;;;25.30;11.98;;;3.80;80.40;;;;;;4992205;28;20030;-76
2021/03/23 07:00:26;;;;;;;35.28;12.85;;;3.90;80.00;;;;;;4976844;28;20066;-76
2021/03/23 07:03:13;;;;;;;26.65;12.82;;;3.90;79.80;;;;;;4977387;28;20035;-76
2021/03/23 07:05:42;;;;;;;25.27;12.18;;;4.00;79.60;;;;;;4991500;28;20034;-76
2021/03/23 07:08:08;;;;;;;24.48;12.02;;;4.00;79.40;;;;;;4991718;28;20488;-77
2021/03/23 07:10:36;;;;;;;31.77;11.60;;;4.20;79.20;;;;;;4975096;28;20070;-76
2021/03/23 07:13:03;;;;;;;30.17;11.77;;;4.20;78.50;;;;;;4991554;28;20518;-78
2021/03/23 07:15:35;;;;;;;29.73;11.70;;;4.30;78.10;;;;;;4991385;28;20516;-77
2021/03/23 07:18:20;;;;;;;30.35;11.88;;;4.50;77.80;;;;;;4991011;28;20050;-77
2021/03/23 07:20:58;;;;;;;25.02;12.70;;;4.50;77.40;;;;;;4991052;28;20496;-77
2021/03/23 07:23:40;;;;;;;27.92;12.30;;;4.60;77.00;;;;;;4976486;28;20043;-78
2021/03/23 07:26:36;;;;;;;23.20;12.20;;;4.70;76.80;;;;;;4991073;28;20039;-77
2021/03/23 07:29:11;;;;;;;33.72;11.27;;;4.70;76.80;;;;;;4975069;28;20094;-77
2021/03/23 07:32:05;;;;;;;28.05;11.48;;;4.80;76.30;;;;;;4975185;28;20125;-77
2021/03/23 07:34:47;;;;;;;30.45;11.43;;;5.00;75.80;;;;;;4964930;28;20137;-77
2021/03/23 07:37:46;;;;;;;24.75;12.18;;;5.10;75.10;;;;;;4983774;28;20043;-76
2021/03/23 07:40:22;;;;;;;23.48;11.25;;;5.20;74.50;;;;;;4984627;28;20505;-76
2021/03/23 07:43:26;;;;;;;24.63;12.20;;;5.30;74.20;;;;;;4993314;28;20080;-76
2021/03/23 07:46:12;;;;;;;24.60;11.98;;;5.50;73.90;;;;;;4977201;28;20399;-78
2021/03/23 07:48:47;;;;;;;25.63;11.43;;;5.50;73.60;;;;;;4993531;28;20088;-79
2021/03/23 07:51:43;;;;;;;23.48;11.48;;;5.50;73.30;;;;;;4994961;28;20073;-78
2021/03/23 07:54:20;;;;;;;25.10;11.63;;;5.60;72.90;;;;;;4994300;28;20062;-77
2021/03/23 07:56:57;;;;;;;24.23;11.77;;;5.70;72.90;;;;;;4993612;28;20045;-78
2021/03/23 07:59:42;;;;;;;23.63;12.30;;;5.90;72.20;;;;;;4988718;28;20042;-78
2021/03/23 08:02:29;;;;;;;25.27;11.82;;;5.80;72.20;;;;;;4995074;28;20088;-79
2021/03/23 08:05:19;;;;;;;25.65;11.35;;;6.00;71.70;;;;;;5002548;28;20061;-78
2021/03/23 08:08:14;;;;;;;26.50;11.25;;;6.10;71.10;;;;;;5014843;28;20030;-78
2021/03/23 08:10:55;;;;;;;24.23;11.05;;;6.30;70.60;;;;;;5015370;28;20425;-77
2021/03/23 08:13:41;;;;;;;28.52;12.43;;;6.30;70.30;;;;;;5016267;28;20453;-77
2021/03/23 08:16:06;;;;;;;27.05;10.82;;;6.40;70.30;;;;;;5019032;28;20076;-77
2021/03/23 08:19:03;;;;;;;26.50;10.95;;;6.60;69.80;;;;;;5020041;28;20068;-77
2021/03/23 08:22:00;;;;;;;23.13;10.10;;;6.60;69.20;;;;;;5018685;28;20038;-77
2021/03/23 08:24:50;;;;;;;23.85;10.43;;;6.60;69.40;;;;;;5018700;28;20128;-77
2021/03/23 08:27:32;;;;;;;20.17;10.80;;;6.80;68.60;;;;;;5018689;28;20044;-76
2021/03/23 08:30:22;;;;;;;21.25;10.88;;;6.90;68.60;;;;;;5017833;28;20502;-77
2021/03/23 08:32:48;;;;;;;21.88;10.95;;;7.00;68.70;;;;;;5018328;28;20042;-80
2021/03/23 08:35:31;;;;;;;23.95;10.68;;;7.30;67.80;;;;;;5020126;28;20042;-83
2021/03/23 08:38:09;;;;;;;25.40;11.25;;;7.30;67.70;;;;;;5018113;28;20450;-82
2021/03/23 08:40:58;;;;;;;21.05;11.27;;;7.40;67.30;;;;;;5017818;28;20054;-77
2021/03/23 08:43:34;;;;;;;28.77;10.85;;;7.60;67.10;;;;;;5018394;28;20474;-77
2021/03/23 08:46:04;;;;;;;21.30;11.13;;;7.80;66.20;;;;;;5019553;28;20038;-76
2021/03/23 08:48:46;;;;;;;21.45;9.68;;;7.90;65.60;;;;;;5021279;28;20053;-77
2021/03/23 08:51:18;;;;;;;21.75;9.38;;;7.90;66.00;;;;;;5002753;28;20390;-77
2021/03/23 08:53:48;;;;;;;26.23;10.48;;;8.00;65.30;;;;;;5002170;28;20119;-77
2021/03/23 08:56:14;;;;;;;26.83;11.02;;;8.00;65.20;;;;;;5019941;28;20034;-79
2021/03/23 08:58:50;;;;;;;23.95;10.30;;;8.10;64.60;;;;;;5018142;28;20041;-78
2021/03/23 09:01:25;;;;;;;20.65;10.40;;;8.20;64.10;;;;;;5019746;28;20029;-77
2021/03/23 09:03:53;;;;;;;26.85;11.40;;;8.30;64.00;;;;;;5018772;28;20053;-78
2021/03/23 09:06:26;;;;;;;24.45;9.85;;;8.40;63.90;;;;;;5019924;28;20030;-79
2021/03/23 09:09:16;;;;;;;34.20;10.52;;;8.60;63.00;;;;;;5020361;28;20049;-79
2021/03/23 09:12:02;;;;;;;22.05;9.60;;;8.70;62.80;;;;;;5010124;28;20087;-77
2021/03/23 09:14:31;;;;;;;19.45;9.93;;;8.80;62.30;;;;;;5017431;28;20459;-81
2021/03/23 09:17:03;;;;;;;24.05;9.95;;;8.90;61.90;;;;;;5002061;28;20045;-79
2021/03/23 09:19:35;;;;;;;30.10;11.07;;;8.90;61.90;;;;;;5019478;28;20048;-78
2021/03/23 09:22:01;;;;;;;18.08;9.77;;;8.90;62.40;;;;;;5017648;28;20033;-77
2021/03/23 09:24:39;;;;;;;22.77;10.18;;;9.10;61.60;;;;;;5018206;28;20120;-79
2021/03/23 09:27:29;;;;;;;24.23;10.65;;;9.10;61.10;;;;;;5017267;28;20037;-78
2021/03/23 09:29:55;;;;;;;20.95;10.07;;;9.30;61.10;;;;;;5007594;28;20049;-79
2021/03/23 09:32:28;;;;;;;23.77;10.82;;;9.40;60.20;;;;;;5017085;28;20090;-81
2021/03/23 09:35:07;;;;;;;23.15;11.40;;;9.40;60.20;;;;;;5014392;28;20033;-79
2021/03/23 09:38:19;;;;;;;26.08;9.88;;;9.50;60.40;;;;;;4999190;28;20026;-78
2021/03/23 09:40:57;;;;;;;23.55;9.63;;;9.70;59.20;;;;;;4979488;28;20080;-80
2021/03/23 09:43:30;;;;;;;19.50;9.55;;;10.00;58.50;;;;;;4978717;28;20066;-79
2021/03/23 09:46:04;;;;;;;18.85;9.15;;;10.10;58.20;;;;;;4978918;28;20081;-79
2021/03/23 09:48:47;;;;;;;22.80;10.27;;;10.20;58.00;;;;;;4962935;28;20069;-78
2021/03/23 09:51:33;;;;;;;22.05;9.55;;;10.20;57.70;;;;;;4978610;28;20039;-79
2021/03/23 09:54:00;;;;;;;19.65;9.02;;;10.60;57.50;;;;;;4988569;28;20035;-80
2021/03/23 09:56:36;;;;;;;22.02;10.23;;;10.60;56.80;;;;;;4992442;28;20121;-77
2021/03/23 09:59:04;;;;;;;19.65;10.20;;;10.60;56.70;;;;;;4988935;28;20069;-77
2021/03/23 10:01:31;;;;;;;19.52;9.43;;;10.70;56.30;;;;;;4980818;28;20034;-76
2021/03/23 10:03:58;;;;;;;22.42;9.05;;;10.70;56.30;;;;;;4978798;28;20093;-76
2021/03/23 10:06:27;;;;;;;21.27;10.05;;;10.90;55.70;;;;;;4977883;28;20046;-80
2021/03/23 10:09:08;;;;;;;22.95;10.18;;;11.00;55.50;;;;;;4975322;28;20118;-81
2021/03/23 10:11:44;;;;;;;25.25;9.60;;;11.10;55.30;;;;;;4975379;28;20042;-80
2021/03/23 10:14:28;;;;;;;20.33;9.40;;;11.20;54.70;;;;;;4959313;28;20042;-79
2021/03/23 10:17:05;;;;;;;19.13;8.10;;;11.50;54.50;;;;;;4959233;28;20046;-77
2021/03/23 10:19:40;;;;;;;22.15;9.52;;;11.60;53.80;;;;;;4979931;28;20054;-80
2021/03/23 10:22:13;;;;;;;17.15;8.95;;;11.50;53.30;;;;;;4994244;28;20074;-80
2021/03/23 10:24:42;;;;;;;18.58;9.85;;;11.50;53.20;;;;;;4994405;28;20058;-79
2021/03/23 10:27:25;;;;;;;25.13;9.30;;;11.60;53.40;;;;;;4994095;28;20038;-82
2021/03/23 10:30:16;;;;;;;17.73;8.93;;;11.70;52.80;;;;;;4994237;28;20455;-80
2021/03/23 10:32:48;;;;;;;18.17;7.57;;;11.70;52.60;;;;;;4983473;28;20133;-78
2021/03/23 10:35:28;;;;;;;19.13;8.60;;;11.90;51.30;;;;;;4977656;28;20567;-79
2021/03/23 10:38:15;;;;;;;22.30;9.18;;;12.00;52.10;;;;;;4995549;28;20042;-80
2021/03/23 10:40:42;;;;;;;27.10;10.38;;;11.70;52.10;;;;;;4994567;28;20125;-80
2021/03/23 10:43:33;;;;;;;16.23;8.02;;;11.70;52.40;;;;;;4993371;28;20042;-78
2021/03/23 10:46:23;;;;;;;27.10;11.10;;;11.90;52.00;;;;;;4993384;28;20038;-79
2021/03/23 10:48:49;;;;;;;23.35;9.70;;;12.20;50.90;;;;;;4978049;28;20054;-78
2021/03/23 10:51:28;;;;;;;37.45;12.88;;;12.30;50.70;;;;;;4994765;28;20068;-78
2021/03/23 10:54:18;;;;;;;18.90;8.95;;;12.50;49.90;;;;;;4977468;28;20058;-78
2021/03/23 10:56:48;;;;;;;20.75;8.77;;;12.50;50.00;;;;;;4993816;28;20042;-78
2021/03/23 10:59:18;;;;;;;16.65;8.35;;;12.40;50.40;;;;;;4993656;28;20053;-81
2021/03/23 11:02:02;;;;;;;18.70;9.75;;;12.50;50.30;;;;;;4993846;28;20491;-80
2021/03/23 11:04:30;;;;;;;23.08;9.95;;;12.80;49.70;;;;;;4996294;28;20038;-80
2021/03/23 11:07:16;;;;;;;14.48;7.90;;;12.80;49.90;;;;;;4994095;28;20030;-80
2021/03/23 11:09:42;;;;;;;18.67;8.38;;;12.90;49.30;;;;;;4995264;28;20042;-81
2021/03/23 11:12:08;;;;;;;15.60;7.78;;;13.00;48.60;;;;;;4993044;28;20038;-80
2021/03/23 11:19:59;;;;;;;18.27;8.00;;;13.10;48.80;;;;;;4914941;29;20502;-80
2021/03/23 11:25:53;;;;;;;18.52;8.82;;;13.40;47.10;;;;;;4888439;29;20039;-81
2021/03/23 11:28:19;;;;;;;19.17;9.88;;;13.40;47.30;;;;;;4914598;29;20525;-81
2021/03/23 11:30:46;;;;;;;14.13;8.63;;;13.50;47.60;;;;;;4964307;28;20046;-82
2021/03/23 11:33:13;;;;;;;21.05;9.55;;;13.70;46.90;;;;;;4976237;28;20127;-80
2021/03/23 11:35:42;;;;;;;17.15;8.63;;;13.70;47.40;;;;;;4993453;28;20038;-80
2021/03/23 11:38:08;;;;;;;18.10;9.05;;;13.80;46.50;;;;;;4976102;28;20156;-79
2021/03/23 11:40:34;;;;;;;17.63;8.05;;;14.00;46.20;;;;;;4973597;28;20187;-81
2021/03/23 11:43:45;;;;;;;15.50;8.07;;;13.80;45.50;;;;;;4973946;28;20093;-77
2021/03/23 11:46:41;;;;;;;18.35;8.70;;;13.70;45.70;;;;;;4954550;28;20045;-78
2021/03/23 11:49:13;;;;;;;21.65;13.10;;;14.00;46.00;;;;;;4973334;28;20039;-77
2021/03/23 11:51:47;;;;;;;16.90;9.88;;;14.30;46.10;;;;;;4988694;28;20458;-79
2021/03/23 11:54:14;;;;;;;15.30;8.80;;;14.50;46.00;;;;;;4974233;28;20559;-80
2021/03/23 11:56:40;;;;;;;21.13;10.63;;;14.40;46.40;;;;;;4974737;28;20050;-82
2021/03/23 11:59:07;;;;;;;22.33;9.57;;;14.20;46.30;;;;;;4974444;28;20592;-81
2021/03/23 12:01:33;;;;;;;18.52;8.52;;;14.20;46.50;;;;;;4974713;28;20050;-78
2021/03/23 12:04:03;;;;;;;17.70;9.02;;;14.40;46.50;;;;;;4988803;28;20039;-77
2021/03/23 12:06:55;;;;;;;17.85;9.60;;;14.40;46.40;;;;;;4974182;28;20053;-75
2021/03/23 12:09:47;;;;;;;19.95;10.90;;;14.20;47.30;;;;;;4973909;28;20557;-75
2021/03/23 12:12:24;;;;;;;17.55;9.18;;;14.20;47.60;;;;;;4973644;28;20594;-75
2021/03/23 12:15:20;;;;;;;17.25;8.93;;;14.50;47.20;;;;;;4974413;28;20053;-78
2021/03/23 12:17:51;;;;;;;15.05;8.23;;;14.50;46.20;;;;;;4974713;28;20078;-77
2021/03/23 12:20:24;;;;;;;15.18;9.27;;;14.30;46.30;;;;;;4989111;28;20034;-76
2021/03/23 12:22:51;;;;;;;15.75;8.18;;;14.50;46.10;;;;;;4988378;28;20042;-76
2021/03/23 12:25:22;;;;;;;19.98;9.80;;;14.60;45.50;;;;;;4972802;28;20034;-76
2021/03/23 12:27:48;;;;;;;20.83;10.27;;;14.50;46.20;;;;;;4972699;28;20039;-76
2021/03/23 12:30:15;;;;;;;19.08;8.80;;;14.50;47.10;;;;;;4974061;28;20526;-76
2021/03/23 12:32:41;;;;;;;20.27;8.88;;;14.60;46.10;;;;;;4974068;28;20062;-76
2021/03/23 12:35:18;;;;;;;19.23;8.95;;;14.60;46.20;;;;;;4989470;28;20039;-75
2021/03/23 12:37:46;;;;;;;15.60;8.07;;;14.70;45.80;;;;;;4973997;28;20030;-76
2021/03/23 12:40:14;;;;;;;18.17;8.73;;;15.10;44.50;;;;;;4972499;28;20423;-79
2021/03/23 12:42:40;;;;;;;15.10;8.27;;;15.20;44.30;;;;;;4973807;28;20045;-79
2021/03/23 12:45:08;;;;;;;17.05;8.02;;;15.40;43.80;;;;;;4974333;28;20035;-77
2021/03/23 12:47:34;;;;;;;19.75;9.75;;;15.40;44.30;;;;;;4974084;28;20109;-76
2021/03/23 12:50:02;;;;;;;15.57;8.80;;;15.40;44.40;;;;;;4973964;28;20039;-75
2021/03/23 12:52:28;;;;;;;16.50;8.07;;;15.50;44.50;;;;;;4973965;28;20053;-76
2021/03/23 12:54:56;;;;;;;19.60;8.82;;;15.60;44.60;;;;;;4973764;28;20031;-76
2021/03/23 12:57:26;;;;;;;19.40;9.40;;;15.60;44.90;;;;;;4972250;28;20039;-76
2021/03/23 12:59:54;;;;;;;16.85;8.77;;;15.60;44.90;;;;;;4974969;28;20054;-76
2021/03/23 13:02:24;;;;;;;18.08;9.05;;;15.70;45.00;;;;;;4974567;28;20043;-78
2021/03/23 13:05:21;;;;;;;13.88;8.02;;;15.80;44.90;;;;;;4976674;28;20042;-78
2021/03/23 13:11:27;;;;;;;16.27;8.38;;;16.50;43.60;;;;;;4970694;28;20061;-78
2021/03/23 13:14:06;;;;;;;13.80;8.25;;;16.40;43.40;;;;;;4974305;28;20094;-78
2021/03/23 13:16:35;;;;;;;14.82;7.78;;;16.70;43.30;;;;;;4976245;28;20541;-76